sensor_id;sensor_type;location;lat;lon;timestamp;P1;durP1;ratioP1;P2;durP2;ratioP2
71116;SDS011;58775;46.992;9.518;2023-03-01T00:01:31;24.48;;;11.43;;
71116;SDS011;58775;46.992;9.518;2023-03-01T00:03:32;26.92;;;11.95;;
71116;SDS011;58775;46.992;9.518;2023-03-01T00:05:33;24.30;;;11.45;;
71116;SDS011;58775;46.992;9.518;2023-03-01T00:07:34;26.42;;;12.07;;
71116;SDS011;58775;46.992;9.518;2023-03-01T00:09:36;25.60;;;11.80;;
71116;SDS011;58775;46.992;9.518;2023-03-01T00:11:37;26.10;;;12.43;;
71116;SDS011;58775;46.992;9.518;2023-03-01T00:13:39;26.35;;;12.52;;
71116;SDS011;58775;46.992;9.518;2023-03-01T00:15:41;24.00;;;12.02;;
71116;SDS011;58775;46.992;9.518;2023-03-01T00:17:42;25.02;;;11.45;;
71116;SDS011;58775;46.992;9.518;2023-03-01T00:19:43;23.10;;;10.10;;
71116;SDS011;58775;46.992;9.518;2023-03-01T00:21:44;24.02;;;10.52;;
71116;SDS011;58775;46.992;9.518;2023-03-01T00:23:45;23.27;;;10.48;;
71116;SDS011;58775;46.992;9.518;2023-03-01T00:25:46;23.27;;;11.27;;
71116;SDS011;58775;46.992;9.518;2023-03-01T00:27:47;24.63;;;11.40;;
71116;SDS011;58775;46.992;9.518;2023-03-01T00:29:49;23.23;;;11.45;;
71116;SDS011;58775;46.992;9.518;2023-03-01T00:31:50;26.27;;;12.65;;
71116;SDS011;58775;46.992;9.518;2023-03-01T00:33:58;28.92;;;13.00;;
71116;SDS011;58775;46.992;9.518;2023-03-01T00:36:03;28.23;;;12.37;;
71116;SDS011;58775;46.992;9.518;2023-03-01T00:38:04;28.00;;;12.18;;
71116;SDS011;58775;46.992;9.518;2023-03-01T00:40:05;26.48;;;11.88;;
71116;SDS011;58775;46.992;9.518;2023-03-01T00:42:07;25.98;;;11.90;;
71116;SDS011;58775;46.992;9.518;2023-03-01T00:44:08;27.58;;;11.85;;
71116;SDS011;58775;46.992;9.518;2023-03-01T00:46:11;28.20;;;12.07;;
71116;SDS011;58775;46.992;9.518;2023-03-01T00:48:17;26.05;;;11.60;;
71116;SDS011;58775;46.992;9.518;2023-03-01T00:50:18;27.40;;;11.93;;
71116;SDS011;58775;46.992;9.518;2023-03-01T00:52:20;25.90;;;11.57;;
71116;SDS011;58775;46.992;9.518;2023-03-01T00:54:21;23.00;;;10.65;;
71116;SDS011;58775;46.992;9.518;2023-03-01T00:56:22;26.17;;;12.32;;
71116;SDS011;58775;46.992;9.518;2023-03-01T00:58:24;25.40;;;11.07;;
71116;SDS011;58775;46.992;9.518;2023-03-01T01:00:25;24.52;;;11.02;;
71116;SDS011;58775;46.992;9.518;2023-03-01T01:02:27;26.42;;;10.95;;
71116;SDS011;58775;46.992;9.518;2023-03-01T01:04:28;24.20;;;10.80;;
71116;SDS011;58775;46.992;9.518;2023-03-01T01:06:39;23.45;;;11.13;;
71116;SDS011;58775;46.992;9.518;2023-03-01T01:08:45;27.67;;;12.98;;
71116;SDS011;58775;46.992;9.518;2023-03-01T01:10:47;25.30;;;11.60;;
71116;SDS011;58775;46.992;9.518;2023-03-01T01:12:48;24.35;;;10.80;;
71116;SDS011;58775;46.992;9.518;2023-03-01T01:14:49;26.13;;;12.48;;
71116;SDS011;58775;46.992;9.518;2023-03-01T01:16:50;25.63;;;11.70;;
71116;SDS011;58775;46.992;9.518;2023-03-01T01:18:51;25.73;;;11.87;;
71116;SDS011;58775;46.992;9.518;2023-03-01T01:20:53;26.45;;;11.63;;
71116;SDS011;58775;46.992;9.518;2023-03-01T01:22:54;27.48;;;12.35;;
71116;SDS011;58775;46.992;9.518;2023-03-01T01:24:55;26.38;;;11.15;;
71116;SDS011;58775;46.992;9.518;2023-03-01T01:26:56;26.23;;;12.18;;
71116;SDS011;58775;46.992;9.518;2023-03-01T01:28:57;25.10;;;11.90;;
71116;SDS011;58775;46.992;9.518;2023-03-01T01:30:59;27.50;;;12.75;;
71116;SDS011;58775;46.992;9.518;2023-03-01T01:33:01;25.88;;;12.40;;
71116;SDS011;58775;46.992;9.518;2023-03-01T01:35:02;25.15;;;11.32;;
71116;SDS011;58775;46.992;9.518;2023-03-01T01:37:04;27.30;;;12.48;;
71116;SDS011;58775;46.992;9.518;2023-03-01T01:39:08;27.80;;;11.73;;
71116;SDS011;58775;46.992;9.518;2023-03-01T01:41:13;26.10;;;11.90;;
71116;SDS011;58775;46.992;9.518;2023-03-01T01:43:27;26.00;;;11.52;;
71116;SDS011;58775;46.992;9.518;2023-03-01T01:45:37;25.58;;;11.57;;
71116;SDS011;58775;46.992;9.518;2023-03-01T01:47:38;26.25;;;11.73;;
71116;SDS011;58775;46.992;9.518;2023-03-01T01:51:48;28.90;;;12.23;;
71116;SDS011;58775;46.992;9.518;2023-03-01T01:53:53;25.70;;;11.27;;
71116;SDS011;58775;46.992;9.518;2023-03-01T01:56:00;27.00;;;12.32;;
71116;SDS011;58775;46.992;9.518;2023-03-01T01:58:04;28.58;;;13.02;;
71116;SDS011;58775;46.992;9.518;2023-03-01T02:00:13;27.80;;;11.87;;
71116;SDS011;58775;46.992;9.518;2023-03-01T02:02:17;24.77;;;11.20;;
71116;SDS011;58775;46.992;9.518;2023-03-01T02:04:20;24.92;;;11.38;;
71116;SDS011;58775;46.992;9.518;2023-03-01T02:06:24;23.92;;;10.40;;
71116;SDS011;58775;46.992;9.518;2023-03-01T02:08:33;26.40;;;12.13;;
71116;SDS011;58775;46.992;9.518;2023-03-01T02:10:38;25.23;;;11.53;;
71116;SDS011;58775;46.992;9.518;2023-03-01T02:12:39;26.77;;;12.10;;
71116;SDS011;58775;46.992;9.518;2023-03-01T02:14:40;26.85;;;11.95;;
71116;SDS011;58775;46.992;9.518;2023-03-01T02:16:41;27.13;;;12.02;;
71116;SDS011;58775;46.992;9.518;2023-03-01T02:18:43;27.63;;;12.02;;
71116;SDS011;58775;46.992;9.518;2023-03-01T02:23:01;27.63;;;12.20;;
71116;SDS011;58775;46.992;9.518;2023-03-01T02:27:18;26.63;;;12.93;;
71116;SDS011;58775;46.992;9.518;2023-03-01T02:29:25;27.33;;;12.50;;
71116;SDS011;58775;46.992;9.518;2023-03-01T02:31:27;26.17;;;12.02;;
71116;SDS011;58775;46.992;9.518;2023-03-01T02:33:45;31.30;;;12.77;;
71116;SDS011;58775;46.992;9.518;2023-03-01T02:35:48;25.83;;;11.95;;
71116;SDS011;58775;46.992;9.518;2023-03-01T02:37:49;29.67;;;13.85;;
71116;SDS011;58775;46.992;9.518;2023-03-01T02:39:53;28.33;;;12.57;;
71116;SDS011;58775;46.992;9.518;2023-03-01T02:41:58;29.15;;;12.90;;
71116;SDS011;58775;46.992;9.518;2023-03-01T02:44:01;30.85;;;12.85;;
71116;SDS011;58775;46.992;9.518;2023-03-01T02:46:05;26.90;;;12.35;;
71116;SDS011;58775;46.992;9.518;2023-03-01T02:48:08;30.17;;;13.23;;
71116;SDS011;58775;46.992;9.518;2023-03-01T02:50:23;29.10;;;13.23;;
71116;SDS011;58775;46.992;9.518;2023-03-01T02:52:45;29.35;;;12.50;;
71116;SDS011;58775;46.992;9.518;2023-03-01T02:55:07;27.45;;;12.50;;
71116;SDS011;58775;46.992;9.518;2023-03-01T02:57:11;30.85;;;12.50;;
71116;SDS011;58775;46.992;9.518;2023-03-01T02:59:13;28.10;;;11.90;;
71116;SDS011;58775;46.992;9.518;2023-03-01T03:01:15;26.08;;;11.68;;
71116;SDS011;58775;46.992;9.518;2023-03-01T03:03:17;28.13;;;12.70;;
71116;SDS011;58775;46.992;9.518;2023-03-01T03:05:22;29.88;;;13.10;;
71116;SDS011;58775;46.992;9.518;2023-03-01T03:07:28;33.92;;;14.23;;
71116;SDS011;58775;46.992;9.518;2023-03-01T03:09:29;26.33;;;12.30;;
71116;SDS011;58775;46.992;9.518;2023-03-01T03:11:30;27.42;;;12.57;;
71116;SDS011;58775;46.992;9.518;2023-03-01T03:13:32;29.98;;;12.70;;
71116;SDS011;58775;46.992;9.518;2023-03-01T03:15:34;29.48;;;12.18;;
71116;SDS011;58775;46.992;9.518;2023-03-01T03:17:40;27.85;;;11.25;;
71116;SDS011;58775;46.992;9.518;2023-03-01T03:19:43;29.80;;;12.33;;
71116;SDS011;58775;46.992;9.518;2023-03-01T03:21:45;29.25;;;12.18;;
71116;SDS011;58775;46.992;9.518;2023-03-01T03:23:46;29.08;;;12.48;;
71116;SDS011;58775;46.992;9.518;2023-03-01T03:25:48;28.73;;;12.05;;
71116;SDS011;58775;46.992;9.518;2023-03-01T03:27:51;26.60;;;11.83;;
71116;SDS011;58775;46.992;9.518;2023-03-01T03:29:58;26.40;;;12.10;;
71116;SDS011;58775;46.992;9.518;2023-03-01T03:31:59;31.88;;;12.80;;
71116;SDS011;58775;46.992;9.518;2023-03-01T03:34:00;25.23;;;11.73;;
71116;SDS011;58775;46.992;9.518;2023-03-01T03:36:01;30.93;;;12.47;;
71116;SDS011;58775;46.992;9.518;2023-03-01T03:38:05;29.70;;;12.93;;
71116;SDS011;58775;46.992;9.518;2023-03-01T03:40:15;27.42;;;12.57;;
71116;SDS011;58775;46.992;9.518;2023-03-01T03:42:16;26.95;;;11.43;;
71116;SDS011;58775;46.992;9.518;2023-03-01T03:44:17;28.80;;;12.95;;
71116;SDS011;58775;46.992;9.518;2023-03-01T03:46:18;23.97;;;11.23;;
71116;SDS011;58775;46.992;9.518;2023-03-01T03:48:19;25.80;;;11.52;;
71116;SDS011;58775;46.992;9.518;2023-03-01T03:50:21;26.58;;;11.70;;
71116;SDS011;58775;46.992;9.518;2023-03-01T03:52:21;29.85;;;13.13;;
71116;SDS011;58775;46.992;9.518;2023-03-01T03:54:23;33.20;;;12.73;;
71116;SDS011;58775;46.992;9.518;2023-03-01T03:56:23;29.17;;;12.65;;
71116;SDS011;58775;46.992;9.518;2023-03-01T03:58:26;33.05;;;12.63;;
71116;SDS011;58775;46.992;9.518;2023-03-01T04:00:27;28.15;;;13.15;;
71116;SDS011;58775;46.992;9.518;2023-03-01T04:02:29;29.07;;;12.20;;
71116;SDS011;58775;46.992;9.518;2023-03-01T04:04:30;32.22;;;14.05;;
71116;SDS011;58775;46.992;9.518;2023-03-01T04:06:32;29.48;;;12.10;;
71116;SDS011;58775;46.992;9.518;2023-03-01T04:08:33;28.73;;;12.73;;
71116;SDS011;58775;46.992;9.518;2023-03-01T04:10:38;27.27;;;13.17;;
71116;SDS011;58775;46.992;9.518;2023-03-01T04:12:43;28.67;;;13.43;;
71116;SDS011;58775;46.992;9.518;2023-03-01T04:14:45;27.60;;;12.38;;
71116;SDS011;58775;46.992;9.518;2023-03-01T04:16:45;34.30;;;13.10;;
71116;SDS011;58775;46.992;9.518;2023-03-01T04:18:47;29.05;;;11.80;;
71116;SDS011;58775;46.992;9.518;2023-03-01T04:20:48;28.23;;;11.40;;
71116;SDS011;58775;46.992;9.518;2023-03-01T04:22:49;28.70;;;12.43;;
71116;SDS011;58775;46.992;9.518;2023-03-01T04:24:52;28.75;;;13.10;;
71116;SDS011;58775;46.992;9.518;2023-03-01T04:26:53;27.60;;;11.88;;
71116;SDS011;58775;46.992;9.518;2023-03-01T04:28:54;26.60;;;12.20;;
71116;SDS011;58775;46.992;9.518;2023-03-01T04:30:56;26.45;;;12.18;;
71116;SDS011;58775;46.992;9.518;2023-03-01T04:32:58;32.58;;;12.93;;
71116;SDS011;58775;46.992;9.518;2023-03-01T04:35:00;30.15;;;12.77;;
71116;SDS011;58775;46.992;9.518;2023-03-01T04:37:01;29.27;;;13.32;;
71116;SDS011;58775;46.992;9.518;2023-03-01T04:39:02;26.63;;;12.33;;
71116;SDS011;58775;46.992;9.518;2023-03-01T04:41:12;34.38;;;13.68;;
71116;SDS011;58775;46.992;9.518;2023-03-01T04:43:14;31.52;;;12.65;;
71116;SDS011;58775;46.992;9.518;2023-03-01T04:45:15;27.77;;;12.15;;
71116;SDS011;58775;46.992;9.518;2023-03-01T04:47:17;26.95;;;12.45;;
71116;SDS011;58775;46.992;9.518;2023-03-01T04:49:18;26.75;;;12.00;;
71116;SDS011;58775;46.992;9.518;2023-03-01T04:51:18;30.25;;;12.30;;
71116;SDS011;58775;46.992;9.518;2023-03-01T04:53:19;29.83;;;12.80;;
71116;SDS011;58775;46.992;9.518;2023-03-01T04:55:20;30.47;;;12.80;;
71116;SDS011;58775;46.992;9.518;2023-03-01T04:57:21;28.40;;;13.73;;
71116;SDS011;58775;46.992;9.518;2023-03-01T04:59:22;31.25;;;13.75;;
71116;SDS011;58775;46.992;9.518;2023-03-01T05:01:23;28.80;;;12.90;;
71116;SDS011;58775;46.992;9.518;2023-03-01T05:03:24;26.55;;;12.10;;
71116;SDS011;58775;46.992;9.518;2023-03-01T05:05:27;26.83;;;12.05;;
71116;SDS011;58775;46.992;9.518;2023-03-01T05:07:29;29.45;;;12.73;;
71116;SDS011;58775;46.992;9.518;2023-03-01T05:09:30;29.60;;;12.97;;
71116;SDS011;58775;46.992;9.518;2023-03-01T05:11:31;28.48;;;12.63;;
71116;SDS011;58775;46.992;9.518;2023-03-01T05:13:36;27.13;;;13.13;;
71116;SDS011;58775;46.992;9.518;2023-03-01T05:15:39;30.13;;;13.00;;
71116;SDS011;58775;46.992;9.518;2023-03-01T05:17:40;28.52;;;13.48;;
71116;SDS011;58775;46.992;9.518;2023-03-01T05:19:41;30.10;;;14.53;;
71116;SDS011;58775;46.992;9.518;2023-03-01T05:21:43;32.97;;;13.63;;
71116;SDS011;58775;46.992;9.518;2023-03-01T05:24:02;31.73;;;14.02;;
71116;SDS011;58775;46.992;9.518;2023-03-01T05:26:03;29.45;;;13.20;;
71116;SDS011;58775;46.992;9.518;2023-03-01T05:28:07;30.85;;;13.32;;
71116;SDS011;58775;46.992;9.518;2023-03-01T05:30:11;26.40;;;11.73;;
71116;SDS011;58775;46.992;9.518;2023-03-01T05:32:16;31.45;;;13.70;;
71116;SDS011;58775;46.992;9.518;2023-03-01T05:34:17;31.02;;;13.40;;
71116;SDS011;58775;46.992;9.518;2023-03-01T05:36:18;29.73;;;13.60;;
71116;SDS011;58775;46.992;9.518;2023-03-01T05:38:19;27.75;;;13.18;;
71116;SDS011;58775;46.992;9.518;2023-03-01T05:40:22;31.17;;;12.95;;
71116;SDS011;58775;46.992;9.518;2023-03-01T05:42:24;30.38;;;13.20;;
71116;SDS011;58775;46.992;9.518;2023-03-01T05:44:25;30.42;;;14.02;;
71116;SDS011;58775;46.992;9.518;2023-03-01T05:46:27;28.60;;;12.77;;
71116;SDS011;58775;46.992;9.518;2023-03-01T05:48:29;30.47;;;14.10;;
71116;SDS011;58775;46.992;9.518;2023-03-01T05:50:34;30.40;;;12.32;;
71116;SDS011;58775;46.992;9.518;2023-03-01T05:52:36;30.63;;;13.02;;
71116;SDS011;58775;46.992;9.518;2023-03-01T05:54:37;28.92;;;12.88;;
71116;SDS011;58775;46.992;9.518;2023-03-01T05:56:39;29.37;;;12.63;;
71116;SDS011;58775;46.992;9.518;2023-03-01T05:58:40;27.55;;;12.43;;
71116;SDS011;58775;46.992;9.518;2023-03-01T06:00:41;29.55;;;12.55;;
71116;SDS011;58775;46.992;9.518;2023-03-01T06:02:43;29.00;;;13.75;;
71116;SDS011;58775;46.992;9.518;2023-03-01T06:04:44;27.43;;;12.13;;
71116;SDS011;58775;46.992;9.518;2023-03-01T06:06:45;28.63;;;12.85;;
71116;SDS011;58775;46.992;9.518;2023-03-01T06:08:46;30.00;;;13.35;;
71116;SDS011;58775;46.992;9.518;2023-03-01T06:10:47;32.33;;;13.07;;
71116;SDS011;58775;46.992;9.518;2023-03-01T06:12:48;30.27;;;14.10;;
71116;SDS011;58775;46.992;9.518;2023-03-01T06:14:49;29.77;;;12.90;;
71116;SDS011;58775;46.992;9.518;2023-03-01T06:16:50;30.50;;;13.23;;
71116;SDS011;58775;46.992;9.518;2023-03-01T06:18:51;31.60;;;12.88;;
71116;SDS011;58775;46.992;9.518;2023-03-01T06:20:53;34.40;;;14.27;;
71116;SDS011;58775;46.992;9.518;2023-03-01T06:22:55;29.63;;;13.02;;
71116;SDS011;58775;46.992;9.518;2023-03-01T06:24:56;30.15;;;12.93;;
71116;SDS011;58775;46.992;9.518;2023-03-01T06:26:57;30.13;;;13.27;;
71116;SDS011;58775;46.992;9.518;2023-03-01T06:28:58;28.07;;;12.40;;
71116;SDS011;58775;46.992;9.518;2023-03-01T06:30:59;28.90;;;12.07;;
71116;SDS011;58775;46.992;9.518;2023-03-01T06:33:00;26.85;;;12.52;;
71116;SDS011;58775;46.992;9.518;2023-03-01T06:35:04;29.15;;;12.30;;
71116;SDS011;58775;46.992;9.518;2023-03-01T06:37:06;30.70;;;12.27;;
71116;SDS011;58775;46.992;9.518;2023-03-01T06:39:07;29.10;;;13.02;;
71116;SDS011;58775;46.992;9.518;2023-03-01T06:41:08;29.90;;;12.35;;
71116;SDS011;58775;46.992;9.518;2023-03-01T06:43:09;28.30;;;13.20;;
71116;SDS011;58775;46.992;9.518;2023-03-01T06:45:10;28.80;;;12.57;;
71116;SDS011;58775;46.992;9.518;2023-03-01T06:47:11;28.20;;;11.73;;
71116;SDS011;58775;46.992;9.518;2023-03-01T06:49:12;31.88;;;13.55;;
71116;SDS011;58775;46.992;9.518;2023-03-01T06:51:13;33.90;;;12.57;;
71116;SDS011;58775;46.992;9.518;2023-03-01T06:53:14;29.17;;;13.20;;
71116;SDS011;58775;46.992;9.518;2023-03-01T06:55:16;31.23;;;13.40;;
71116;SDS011;58775;46.992;9.518;2023-03-01T06:57:17;29.13;;;12.68;;
71116;SDS011;58775;46.992;9.518;2023-03-01T06:59:18;34.75;;;14.68;;
71116;SDS011;58775;46.992;9.518;2023-03-01T07:01:19;29.63;;;13.07;;
71116;SDS011;58775;46.992;9.518;2023-03-01T07:03:20;30.08;;;13.27;;
71116;SDS011;58775;46.992;9.518;2023-03-01T07:05:20;30.85;;;12.98;;
71116;SDS011;58775;46.992;9.518;2023-03-01T07:07:21;30.00;;;13.43;;
71116;SDS011;58775;46.992;9.518;2023-03-01T07:09:23;29.35;;;12.95;;
71116;SDS011;58775;46.992;9.518;2023-03-01T07:11:25;28.55;;;13.70;;
71116;SDS011;58775;46.992;9.518;2023-03-01T07:13:26;30.95;;;13.05;;
71116;SDS011;58775;46.992;9.518;2023-03-01T07:15:27;29.03;;;12.67;;
71116;SDS011;58775;46.992;9.518;2023-03-01T07:17:28;32.58;;;13.73;;
71116;SDS011;58775;46.992;9.518;2023-03-01T07:19:29;27.63;;;12.80;;
71116;SDS011;58775;46.992;9.518;2023-03-01T07:21:30;31.52;;;13.95;;
71116;SDS011;58775;46.992;9.518;2023-03-01T07:23:31;34.90;;;13.83;;
71116;SDS011;58775;46.992;9.518;2023-03-01T07:25:32;31.23;;;13.52;;
71116;SDS011;58775;46.992;9.518;2023-03-01T07:27:33;28.77;;;13.20;;
71116;SDS011;58775;46.992;9.518;2023-03-01T07:29:34;30.70;;;13.52;;
71116;SDS011;58775;46.992;9.518;2023-03-01T07:31:36;27.55;;;12.75;;
71116;SDS011;58775;46.992;9.518;2023-03-01T07:33:38;31.77;;;13.83;;
71116;SDS011;58775;46.992;9.518;2023-03-01T07:35:38;27.02;;;12.73;;
71116;SDS011;58775;46.992;9.518;2023-03-01T07:37:39;29.17;;;12.80;;
71116;SDS011;58775;46.992;9.518;2023-03-01T07:39:41;26.80;;;12.40;;
71116;SDS011;58775;46.992;9.518;2023-03-01T07:41:42;28.45;;;13.48;;
71116;SDS011;58775;46.992;9.518;2023-03-01T07:43:45;28.45;;;12.70;;
71116;SDS011;58775;46.992;9.518;2023-03-01T07:45:46;26.98;;;12.23;;
71116;SDS011;58775;46.992;9.518;2023-03-01T07:47:47;27.60;;;12.93;;
71116;SDS011;58775;46.992;9.518;2023-03-01T07:49:50;28.73;;;13.73;;
71116;SDS011;58775;46.992;9.518;2023-03-01T07:51:51;27.23;;;12.80;;
71116;SDS011;58775;46.992;9.518;2023-03-01T07:53:52;26.52;;;12.48;;
71116;SDS011;58775;46.992;9.518;2023-03-01T07:56:03;25.13;;;12.55;;
71116;SDS011;58775;46.992;9.518;2023-03-01T07:58:06;24.42;;;12.48;;
71116;SDS011;58775;46.992;9.518;2023-03-01T08:00:09;26.13;;;12.82;;
71116;SDS011;58775;46.992;9.518;2023-03-01T08:02:15;26.40;;;13.52;;
71116;SDS011;58775;46.992;9.518;2023-03-01T08:04:16;26.08;;;12.52;;
71116;SDS011;58775;46.992;9.518;2023-03-01T08:06:17;33.03;;;13.65;;
71116;SDS011;58775;46.992;9.518;2023-03-01T08:08:18;24.77;;;12.90;;
71116;SDS011;58775;46.992;9.518;2023-03-01T08:10:19;27.15;;;13.02;;
71116;SDS011;58775;46.992;9.518;2023-03-01T08:12:20;26.35;;;13.20;;
71116;SDS011;58775;46.992;9.518;2023-03-01T08:14:21;27.50;;;14.25;;
71116;SDS011;58775;46.992;9.518;2023-03-01T08:16:22;30.75;;;14.13;;
71116;SDS011;58775;46.992;9.518;2023-03-01T08:18:24;30.15;;;14.65;;
71116;SDS011;58775;46.992;9.518;2023-03-01T08:20:25;31.92;;;13.60;;
71116;SDS011;58775;46.992;9.518;2023-03-01T08:22:26;26.88;;;13.40;;
71116;SDS011;58775;46.992;9.518;2023-03-01T08:24:27;26.10;;;13.63;;
71116;SDS011;58775;46.992;9.518;2023-03-01T08:26:29;28.17;;;12.52;;
71116;SDS011;58775;46.992;9.518;2023-03-01T08:28:30;26.52;;;13.15;;
71116;SDS011;58775;46.992;9.518;2023-03-01T08:30:32;25.30;;;13.05;;
71116;SDS011;58775;46.992;9.518;2023-03-01T08:32:35;28.23;;;13.63;;
71116;SDS011;58775;46.992;9.518;2023-03-01T08:34:38;26.60;;;13.70;;
71116;SDS011;58775;46.992;9.518;2023-03-01T08:36:40;23.77;;;12.80;;
71116;SDS011;58775;46.992;9.518;2023-03-01T08:38:43;26.10;;;13.43;;
71116;SDS011;58775;46.992;9.518;2023-03-01T08:40:44;27.27;;;13.60;;
71116;SDS011;58775;46.992;9.518;2023-03-01T08:42:45;25.58;;;12.65;;
71116;SDS011;58775;46.992;9.518;2023-03-01T08:44:46;26.25;;;13.13;;
71116;SDS011;58775;46.992;9.518;2023-03-01T08:46:47;26.47;;;13.53;;
71116;SDS011;58775;46.992;9.518;2023-03-01T08:48:50;29.38;;;15.10;;
71116;SDS011;58775;46.992;9.518;2023-03-01T08:50:51;30.27;;;14.60;;
71116;SDS011;58775;46.992;9.518;2023-03-01T08:52:52;24.88;;;14.00;;
71116;SDS011;58775;46.992;9.518;2023-03-01T08:54:53;28.70;;;14.47;;
71116;SDS011;58775;46.992;9.518;2023-03-01T08:56:54;27.10;;;14.27;;
71116;SDS011;58775;46.992;9.518;2023-03-01T08:58:55;29.73;;;14.77;;
71116;SDS011;58775;46.992;9.518;2023-03-01T09:00:56;26.88;;;13.15;;
71116;SDS011;58775;46.992;9.518;2023-03-01T09:02:57;27.73;;;14.02;;
71116;SDS011;58775;46.992;9.518;2023-03-01T09:04:58;27.85;;;14.60;;
71116;SDS011;58775;46.992;9.518;2023-03-01T09:06:59;33.92;;;14.10;;
71116;SDS011;58775;46.992;9.518;2023-03-01T09:09:01;29.00;;;14.93;;
71116;SDS011;58775;46.992;9.518;2023-03-01T09:11:04;28.52;;;14.52;;
71116;SDS011;58775;46.992;9.518;2023-03-01T09:13:06;26.57;;;13.70;;
71116;SDS011;58775;46.992;9.518;2023-03-01T09:15:07;28.67;;;15.73;;
71116;SDS011;58775;46.992;9.518;2023-03-01T09:17:09;26.83;;;14.95;;
71116;SDS011;58775;46.992;9.518;2023-03-01T09:19:10;26.88;;;14.35;;
71116;SDS011;58775;46.992;9.518;2023-03-01T09:21:13;27.27;;;13.40;;
71116;SDS011;58775;46.992;9.518;2023-03-01T09:23:15;27.33;;;14.63;;
71116;SDS011;58775;46.992;9.518;2023-03-01T09:25:16;23.83;;;13.93;;
71116;SDS011;58775;46.992;9.518;2023-03-01T09:27:17;29.02;;;14.35;;
71116;SDS011;58775;46.992;9.518;2023-03-01T09:29:19;25.25;;;13.27;;
71116;SDS011;58775;46.992;9.518;2023-03-01T09:31:21;25.50;;;14.80;;
71116;SDS011;58775;46.992;9.518;2023-03-01T09:33:23;31.77;;;15.88;;
71116;SDS011;58775;46.992;9.518;2023-03-01T09:35:24;27.30;;;14.85;;
71116;SDS011;58775;46.992;9.518;2023-03-01T09:37:27;25.40;;;14.43;;
71116;SDS011;58775;46.992;9.518;2023-03-01T09:39:28;26.25;;;14.60;;
71116;SDS011;58775;46.992;9.518;2023-03-01T09:41:42;28.42;;;14.02;;
71116;SDS011;58775;46.992;9.518;2023-03-01T09:46:32;26.00;;;14.85;;
71116;SDS011;58775;46.992;9.518;2023-03-01T09:49:01;25.30;;;13.25;;
71116;SDS011;58775;46.992;9.518;2023-03-01T09:51:06;25.83;;;13.40;;
71116;SDS011;58775;46.992;9.518;2023-03-01T09:53:14;25.02;;;13.43;;
71116;SDS011;58775;46.992;9.518;2023-03-01T09:55:27;23.52;;;13.02;;
71116;SDS011;58775;46.992;9.518;2023-03-01T09:57:47;24.67;;;12.65;;
71116;SDS011;58775;46.992;9.518;2023-03-01T10:09:07;25.90;;;13.80;;
71116;SDS011;58775;46.992;9.518;2023-03-01T10:11:20;25.52;;;14.00;;
71116;SDS011;58775;46.992;9.518;2023-03-01T10:13:46;28.48;;;14.32;;
71116;SDS011;58775;46.992;9.518;2023-03-01T10:16:24;21.55;;;12.35;;
71116;SDS011;58775;46.992;9.518;2023-03-01T10:18:29;25.05;;;14.18;;
71116;SDS011;58775;46.992;9.518;2023-03-01T10:20:43;22.63;;;13.18;;
71116;SDS011;58775;46.992;9.518;2023-03-01T10:22:52;24.25;;;13.27;;
71116;SDS011;58775;46.992;9.518;2023-03-01T10:24:57;24.73;;;12.57;;
71116;SDS011;58775;46.992;9.518;2023-03-01T10:27:05;23.30;;;12.77;;
71116;SDS011;58775;46.992;9.518;2023-03-01T10:29:11;23.60;;;12.60;;
71116;SDS011;58775;46.992;9.518;2023-03-01T10:31:14;24.48;;;13.07;;
71116;SDS011;58775;46.992;9.518;2023-03-01T10:33:20;24.20;;;12.75;;
71116;SDS011;58775;46.992;9.518;2023-03-01T10:35:25;22.80;;;12.35;;
71116;SDS011;58775;46.992;9.518;2023-03-01T10:37:27;23.10;;;12.25;;
71116;SDS011;58775;46.992;9.518;2023-03-01T10:39:30;23.48;;;12.07;;
71116;SDS011;58775;46.992;9.518;2023-03-01T10:41:31;23.20;;;12.80;;
71116;SDS011;58775;46.992;9.518;2023-03-01T10:43:40;21.75;;;12.00;;
71116;SDS011;58775;46.992;9.518;2023-03-01T10:45:45;22.23;;;11.37;;
71116;SDS011;58775;46.992;9.518;2023-03-01T10:47:47;22.60;;;12.13;;
71116;SDS011;58775;46.992;9.518;2023-03-01T10:50:05;23.08;;;12.13;;
71116;SDS011;58775;46.992;9.518;2023-03-01T10:52:20;20.55;;;11.25;;
71116;SDS011;58775;46.992;9.518;2023-03-01T10:56:29;23.33;;;12.60;;
71116;SDS011;58775;46.992;9.518;2023-03-01T11:01:27;25.67;;;12.68;;
71116;SDS011;58775;46.992;9.518;2023-03-01T11:03:29;22.48;;;12.45;;
71116;SDS011;58775;46.992;9.518;2023-03-01T11:05:31;22.92;;;12.18;;
71116;SDS011;58775;46.992;9.518;2023-03-01T11:07:37;22.87;;;12.37;;
71116;SDS011;58775;46.992;9.518;2023-03-01T11:09:51;24.75;;;12.27;;
71116;SDS011;58775;46.992;9.518;2023-03-01T11:11:52;23.42;;;11.85;;
71116;SDS011;58775;46.992;9.518;2023-03-01T11:13:56;22.00;;;11.82;;
71116;SDS011;58775;46.992;9.518;2023-03-01T11:16:06;23.92;;;11.98;;
71116;SDS011;58775;46.992;9.518;2023-03-01T11:18:19;22.45;;;11.75;;
71116;SDS011;58775;46.992;9.518;2023-03-01T11:20:25;23.17;;;11.52;;
71116;SDS011;58775;46.992;9.518;2023-03-01T11:22:36;22.50;;;11.63;;
71116;SDS011;58775;46.992;9.518;2023-03-01T11:25:07;25.52;;;12.52;;
71116;SDS011;58775;46.992;9.518;2023-03-01T11:29:30;24.10;;;12.90;;
71116;SDS011;58775;46.992;9.518;2023-03-01T11:31:36;22.42;;;11.18;;
71116;SDS011;58775;46.992;9.518;2023-03-01T11:33:43;20.85;;;11.38;;
71116;SDS011;58775;46.992;9.518;2023-03-01T11:36:00;21.75;;;11.02;;
71116;SDS011;58775;46.992;9.518;2023-03-01T11:42:31;21.20;;;10.77;;
71116;SDS011;58775;46.992;9.518;2023-03-01T11:44:56;19.13;;;10.35;;
71116;SDS011;58775;46.992;9.518;2023-03-01T11:52:00;33.60;;;15.55;;
71116;SDS011;58775;46.992;9.518;2023-03-01T11:56:40;23.00;;;11.95;;
71116;SDS011;58775;46.992;9.518;2023-03-01T11:58:50;22.17;;;12.25;;
71116;SDS011;58775;46.992;9.518;2023-03-01T12:08:14;19.98;;;11.07;;
71116;SDS011;58775;46.992;9.518;2023-03-01T12:10:28;22.48;;;11.60;;
71116;SDS011;58775;46.992;9.518;2023-03-01T12:14:55;22.52;;;11.50;;
71116;SDS011;58775;46.992;9.518;2023-03-01T12:17:31;22.52;;;10.65;;
71116;SDS011;58775;46.992;9.518;2023-03-01T12:27:05;24.30;;;11.98;;
71116;SDS011;58775;46.992;9.518;2023-03-01T12:38:39;21.27;;;10.88;;
71116;SDS011;58775;46.992;9.518;2023-03-01T12:41:02;23.65;;;12.25;;
71116;SDS011;58775;46.992;9.518;2023-03-01T12:50:52;21.20;;;11.55;;
71116;SDS011;58775;46.992;9.518;2023-03-01T12:52:57;21.02;;;11.27;;
71116;SDS011;58775;46.992;9.518;2023-03-01T12:54:58;24.08;;;12.10;;
71116;SDS011;58775;46.992;9.518;2023-03-01T12:57:26;22.83;;;11.52;;
71116;SDS011;58775;46.992;9.518;2023-03-01T12:59:39;24.65;;;12.10;;
71116;SDS011;58775;46.992;9.518;2023-03-01T13:02:13;27.77;;;12.63;;
71116;SDS011;58775;46.992;9.518;2023-03-01T13:09:22;20.88;;;10.73;;
71116;SDS011;58775;46.992;9.518;2023-03-01T13:11:23;24.08;;;10.88;;
71116;SDS011;58775;46.992;9.518;2023-03-01T13:13:25;25.05;;;11.25;;
71116;SDS011;58775;46.992;9.518;2023-03-01T13:15:29;25.20;;;11.52;;
71116;SDS011;58775;46.992;9.518;2023-03-01T13:17:39;23.48;;;11.27;;
71116;SDS011;58775;46.992;9.518;2023-03-01T13:19:44;22.63;;;11.40;;
71116;SDS011;58775;46.992;9.518;2023-03-01T13:21:58;26.83;;;12.63;;